sensor_id;sensor_type;location;lat;lon;timestamp;P1;durP1;ratioP1;P2;durP2;ratioP2
8333;SDS011;4204;43.004;23.052;2023-03-01T00:02:23;5.73;;;2.47;;
8333;SDS011;4204;43.004;23.052;2023-03-01T00:04:51;4.47;;;2.10;;
8333;SDS011;4204;43.004;23.052;2023-03-01T00:07:18;3.83;;;2.13;;
8333;SDS011;4204;43.004;23.052;2023-03-01T00:09:46;4.23;;;2.40;;
8333;SDS011;4204;43.004;23.052;2023-03-01T00:12:16;3.87;;;1.70;;
8333;SDS011;4204;43.004;23.052;2023-03-01T00:14:44;1.63;;;1.30;;
8333;SDS011;4204;43.004;23.052;2023-03-01T00:17:12;3.13;;;1.80;;
8333;SDS011;4204;43.004;23.052;2023-03-01T00:19:39;3.80;;;2.10;;
8333;SDS011;4204;43.004;23.052;2023-03-01T00:22:07;3.37;;;2.07;;
8333;SDS011;4204;43.004;23.052;2023-03-01T00:24:35;4.07;;;2.57;;
8333;SDS011;4204;43.004;23.052;2023-03-01T00:27:02;3.50;;;2.40;;
8333;SDS011;4204;43.004;23.052;2023-03-01T00:29:32;2.87;;;1.90;;
8333;SDS011;4204;43.004;23.052;2023-03-01T00:31:59;2.97;;;1.93;;
8333;SDS011;4204;43.004;23.052;2023-03-01T00:34:27;2.87;;;1.83;;
8333;SDS011;4204;43.004;23.052;2023-03-01T00:36:54;4.83;;;2.07;;
8333;SDS011;4204;43.004;23.052;2023-03-01T00:39:31;4.07;;;2.27;;
8333;SDS011;4204;43.004;23.052;2023-03-01T00:41:59;3.97;;;2.37;;
8333;SDS011;4204;43.004;23.052;2023-03-01T00:44:27;3.90;;;2.10;;
8333;SDS011;4204;43.004;23.052;2023-03-01T00:46:56;3.33;;;1.90;;
8333;SDS011;4204;43.004;23.052;2023-03-01T00:49:24;3.27;;;2.00;;
8333;SDS011;4204;43.004;23.052;2023-03-01T00:51:53;3.83;;;2.30;;
8333;SDS011;4204;43.004;23.052;2023-03-01T00:54:23;5.07;;;2.50;;
8333;SDS011;4204;43.004;23.052;2023-03-01T00:56:50;4.00;;;2.13;;
8333;SDS011;4204;43.004;23.052;2023-03-01T00:59:18;2.83;;;1.77;;
8333;SDS011;4204;43.004;23.052;2023-03-01T01:01:46;2.53;;;1.70;;
8333;SDS011;4204;43.004;23.052;2023-03-01T01:04:15;1.67;;;1.37;;
8333;SDS011;4204;43.004;23.052;2023-03-01T01:06:43;3.73;;;1.60;;
8333;SDS011;4204;43.004;23.052;2023-03-01T01:09:13;1.77;;;1.53;;
8333;SDS011;4204;43.004;23.052;2023-03-01T01:11:44;2.00;;;1.60;;
8333;SDS011;4204;43.004;23.052;2023-03-01T01:14:13;2.20;;;1.67;;
8333;SDS011;4204;43.004;23.052;2023-03-01T01:16:42;3.13;;;1.50;;
8333;SDS011;4204;43.004;23.052;2023-03-01T01:19:10;2.70;;;1.80;;
8333;SDS011;4204;43.004;23.052;2023-03-01T01:21:40;1.50;;;1.40;;
8333;SDS011;4204;43.004;23.052;2023-03-01T01:24:09;2.17;;;1.43;;
8333;SDS011;4204;43.004;23.052;2023-03-01T01:26:37;1.97;;;1.37;;
8333;SDS011;4204;43.004;23.052;2023-03-01T01:29:05;1.40;;;1.20;;
8333;SDS011;4204;43.004;23.052;2023-03-01T01:31:35;1.77;;;1.07;;
8333;SDS011;4204;43.004;23.052;2023-03-01T01:34:04;1.77;;;1.40;;
8333;SDS011;4204;43.004;23.052;2023-03-01T01:36:33;1.43;;;1.30;;
8333;SDS011;4204;43.004;23.052;2023-03-01T01:39:03;2.93;;;1.37;;
8333;SDS011;4204;43.004;23.052;2023-03-01T01:41:31;1.40;;;1.30;;
8333;SDS011;4204;43.004;23.052;2023-03-01T01:44:13;1.70;;;1.30;;
8333;SDS011;4204;43.004;23.052;2023-03-01T01:46:44;1.53;;;1.33;;
8333;SDS011;4204;43.004;23.052;2023-03-01T01:49:19;1.57;;;1.33;;
8333;SDS011;4204;43.004;23.052;2023-03-01T01:51:52;2.17;;;1.37;;
8333;SDS011;4204;43.004;23.052;2023-03-01T01:54:26;1.40;;;1.30;;
8333;SDS011;4204;43.004;23.052;2023-03-01T01:56:59;1.30;;;1.17;;
8333;SDS011;4204;43.004;23.052;2023-03-01T01:59:30;1.80;;;1.43;;
8333;SDS011;4204;43.004;23.052;2023-03-01T02:02:02;1.67;;;1.20;;
8333;SDS011;4204;43.004;23.052;2023-03-01T02:04:31;2.73;;;1.30;;
8333;SDS011;4204;43.004;23.052;2023-03-01T02:07:01;2.47;;;1.50;;
8333;SDS011;4204;43.004;23.052;2023-03-01T02:09:35;3.00;;;1.33;;
8333;SDS011;4204;43.004;23.052;2023-03-01T02:12:03;4.73;;;1.50;;
8333;SDS011;4204;43.004;23.052;2023-03-01T02:14:31;1.50;;;1.40;;
8333;SDS011;4204;43.004;23.052;2023-03-01T02:16:59;2.00;;;1.50;;
8333;SDS011;4204;43.004;23.052;2023-03-01T02:19:31;2.20;;;1.43;;
8333;SDS011;4204;43.004;23.052;2023-03-01T02:22:14;1.93;;;1.50;;
8333;SDS011;4204;43.004;23.052;2023-03-01T02:24:51;2.50;;;1.60;;
8333;SDS011;4204;43.004;23.052;2023-03-01T02:27:35;2.83;;;1.90;;
8333;SDS011;4204;43.004;23.052;2023-03-01T02:30:10;3.93;;;1.97;;
8333;SDS011;4204;43.004;23.052;2023-03-01T02:32:39;3.30;;;1.50;;
8333;SDS011;4204;43.004;23.052;2023-03-01T02:35:08;4.47;;;2.00;;
8333;SDS011;4204;43.004;23.052;2023-03-01T02:37:38;1.40;;;1.30;;
8333;SDS011;4204;43.004;23.052;2023-03-01T02:40:08;1.77;;;1.20;;
8333;SDS011;4204;43.004;23.052;2023-03-01T02:42:43;1.53;;;1.30;;
8333;SDS011;4204;43.004;23.052;2023-03-01T02:45:18;3.50;;;1.77;;
8333;SDS011;4204;43.004;23.052;2023-03-01T02:47:45;3.37;;;1.40;;
8333;SDS011;4204;43.004;23.052;2023-03-01T02:50:15;1.57;;;1.20;;
8333;SDS011;4204;43.004;23.052;2023-03-01T02:52:53;1.60;;;1.23;;
8333;SDS011;4204;43.004;23.052;2023-03-01T02:55:26;2.00;;;1.63;;
8333;SDS011;4204;43.004;23.052;2023-03-01T02:57:55;2.03;;;1.30;;
8333;SDS011;4204;43.004;23.052;2023-03-01T03:00:26;1.83;;;1.40;;
8333;SDS011;4204;43.004;23.052;2023-03-01T03:02:59;1.73;;;1.10;;
8333;SDS011;4204;43.004;23.052;2023-03-01T03:05:28;1.30;;;1.20;;
8333;SDS011;4204;43.004;23.052;2023-03-01T03:07:58;2.80;;;1.13;;
8333;SDS011;4204;43.004;23.052;2023-03-01T03:10:29;1.73;;;1.30;;
8333;SDS011;4204;43.004;23.052;2023-03-01T03:12:59;2.53;;;1.50;;
8333;SDS011;4204;43.004;23.052;2023-03-01T03:15:31;1.67;;;1.40;;
8333;SDS011;4204;43.004;23.052;2023-03-01T03:18:03;1.73;;;1.30;;
8333;SDS011;4204;43.004;23.052;2023-03-01T03:20:32;1.60;;;1.10;;
8333;SDS011;4204;43.004;23.052;2023-03-01T03:23:00;1.60;;;1.40;;
8333;SDS011;4204;43.004;23.052;2023-03-01T03:25:28;3.23;;;1.40;;
8333;SDS011;4204;43.004;23.052;2023-03-01T03:27:56;1.67;;;1.33;;
8333;SDS011;4204;43.004;23.052;2023-03-01T03:30:25;1.30;;;1.10;;
8333;SDS011;4204;43.004;23.052;2023-03-01T03:32:55;1.23;;;1.10;;
8333;SDS011;4204;43.004;23.052;2023-03-01T03:35:25;1.00;;;0.90;;
8333;SDS011;4204;43.004;23.052;2023-03-01T03:37:56;1.20;;;1.10;;
8333;SDS011;4204;43.004;23.052;2023-03-01T03:40:33;2.97;;;1.40;;
8333;SDS011;4204;43.004;23.052;2023-03-01T03:43:02;1.37;;;1.20;;
8333;SDS011;4204;43.004;23.052;2023-03-01T03:45:31;1.37;;;1.13;;
8333;SDS011;4204;43.004;23.052;2023-03-01T03:48:02;1.47;;;1.27;;
8333;SDS011;4204;43.004;23.052;2023-03-01T03:50:32;1.20;;;1.10;;
8333;SDS011;4204;43.004;23.052;2023-03-01T03:53:00;1.70;;;1.40;;
8333;SDS011;4204;43.004;23.052;2023-03-01T03:55:29;1.87;;;1.40;;
8333;SDS011;4204;43.004;23.052;2023-03-01T03:58:00;1.87;;;1.43;;
8333;SDS011;4204;43.004;23.052;2023-03-01T04:00:32;2.87;;;1.33;;
8333;SDS011;4204;43.004;23.052;2023-03-01T04:03:03;2.57;;;1.30;;
8333;SDS011;4204;43.004;23.052;2023-03-01T04:05:31;4.53;;;1.67;;
8333;SDS011;4204;43.004;23.052;2023-03-01T04:07:59;2.07;;;1.10;;
8333;SDS011;4204;43.004;23.052;2023-03-01T04:10:33;3.93;;;1.70;;
8333;SDS011;4204;43.004;23.052;2023-03-01T04:13:02;4.10;;;1.30;;
8333;SDS011;4204;43.004;23.052;2023-03-01T04:15:30;2.07;;;1.43;;
8333;SDS011;4204;43.004;23.052;2023-03-01T04:17:58;1.50;;;1.20;;
8333;SDS011;4204;43.004;23.052;2023-03-01T04:20:29;1.80;;;1.40;;
8333;SDS011;4204;43.004;23.052;2023-03-01T04:23:00;3.07;;;1.60;;
8333;SDS011;4204;43.004;23.052;2023-03-01T04:25:37;1.63;;;1.20;;
8333;SDS011;4204;43.004;23.052;2023-03-01T04:28:06;2.00;;;1.33;;
8333;SDS011;4204;43.004;23.052;2023-03-01T04:30:34;3.03;;;1.63;;
8333;SDS011;4204;43.004;23.052;2023-03-01T04:33:03;3.47;;;1.70;;
8333;SDS011;4204;43.004;23.052;2023-03-01T04:35:33;1.20;;;1.10;;
8333;SDS011;4204;43.004;23.052;2023-03-01T04:38:02;2.87;;;1.40;;
8333;SDS011;4204;43.004;23.052;2023-03-01T04:40:31;1.60;;;1.20;;
8333;SDS011;4204;43.004;23.052;2023-03-01T04:42:58;2.33;;;1.20;;
8333;SDS011;4204;43.004;23.052;2023-03-01T04:45:26;2.60;;;1.60;;
8333;SDS011;4204;43.004;23.052;2023-03-01T04:47:54;1.83;;;1.20;;
8333;SDS011;4204;43.004;23.052;2023-03-01T04:50:24;1.67;;;1.20;;
8333;SDS011;4204;43.004;23.052;2023-03-01T04:52:53;1.87;;;1.20;;
8333;SDS011;4204;43.004;23.052;2023-03-01T04:55:24;2.03;;;1.60;;
8333;SDS011;4204;43.004;23.052;2023-03-01T04:57:53;3.20;;;1.83;;
8333;SDS011;4204;43.004;23.052;2023-03-01T05:00:21;1.87;;;1.60;;
8333;SDS011;4204;43.004;23.052;2023-03-01T05:02:50;2.60;;;1.60;;
8333;SDS011;4204;43.004;23.052;2023-03-01T05:05:26;1.40;;;1.20;;
8333;SDS011;4204;43.004;23.052;2023-03-01T05:07:57;1.60;;;1.00;;
8333;SDS011;4204;43.004;23.052;2023-03-01T05:10:27;2.07;;;1.27;;
8333;SDS011;4204;43.004;23.052;2023-03-01T05:12:59;1.63;;;1.20;;
8333;SDS011;4204;43.004;23.052;2023-03-01T05:15:27;2.90;;;1.70;;
8333;SDS011;4204;43.004;23.052;2023-03-01T05:17:57;2.33;;;1.23;;
8333;SDS011;4204;43.004;23.052;2023-03-01T05:20:26;2.50;;;1.40;;
8333;SDS011;4204;43.004;23.052;2023-03-01T05:22:57;1.47;;;1.03;;
8333;SDS011;4204;43.004;23.052;2023-03-01T05:25:31;1.43;;;1.17;;
8333;SDS011;4204;43.004;23.052;2023-03-01T05:28:00;1.57;;;1.20;;
8333;SDS011;4204;43.004;23.052;2023-03-01T05:30:30;2.00;;;1.30;;
8333;SDS011;4204;43.004;23.052;2023-03-01T05:32:58;1.23;;;1.07;;
8333;SDS011;4204;43.004;23.052;2023-03-01T05:35:26;2.97;;;1.60;;
8333;SDS011;4204;43.004;23.052;2023-03-01T05:37:56;4.30;;;2.33;;
8333;SDS011;4204;43.004;23.052;2023-03-01T05:40:24;4.47;;;2.80;;
8333;SDS011;4204;43.004;23.052;2023-03-01T05:42:52;6.07;;;1.87;;
8333;SDS011;4204;43.004;23.052;2023-03-01T05:45:22;3.83;;;1.97;;
8333;SDS011;4204;43.004;23.052;2023-03-01T05:47:51;5.63;;;2.30;;
8333;SDS011;4204;43.004;23.052;2023-03-01T05:50:21;3.57;;;2.10;;
8333;SDS011;4204;43.004;23.052;2023-03-01T05:52:51;3.43;;;2.07;;
8333;SDS011;4204;43.004;23.052;2023-03-01T05:55:25;3.77;;;1.70;;
8333;SDS011;4204;43.004;23.052;2023-03-01T05:57:53;7.57;;;3.00;;
8333;SDS011;4204;43.004;23.052;2023-03-01T06:00:21;5.00;;;2.53;;
8333;SDS011;4204;43.004;23.052;2023-03-01T06:02:49;2.17;;;1.67;;
8333;SDS011;4204;43.004;23.052;2023-03-01T06:05:17;4.90;;;2.40;;
8333;SDS011;4204;43.004;23.052;2023-03-01T06:07:46;4.80;;;3.40;;
8333;SDS011;4204;43.004;23.052;2023-03-01T06:10:14;5.23;;;3.57;;
8333;SDS011;4204;43.004;23.052;2023-03-01T06:12:44;3.03;;;2.07;;
8333;SDS011;4204;43.004;23.052;2023-03-01T06:15:12;3.20;;;1.80;;
8333;SDS011;4204;43.004;23.052;2023-03-01T06:17:42;2.37;;;1.90;;
8333;SDS011;4204;43.004;23.052;2023-03-01T06:20:12;3.43;;;1.90;;
8333;SDS011;4204;43.004;23.052;2023-03-01T06:22:42;2.47;;;1.70;;
8333;SDS011;4204;43.004;23.052;2023-03-01T06:25:11;2.37;;;1.50;;
8333;SDS011;4204;43.004;23.052;2023-03-01T06:27:40;2.13;;;1.50;;
8333;SDS011;4204;43.004;23.052;2023-03-01T06:30:11;1.60;;;1.50;;
8333;SDS011;4204;43.004;23.052;2023-03-01T06:32:40;1.97;;;1.40;;
8333;SDS011;4204;43.004;23.052;2023-03-01T06:35:09;1.30;;;1.10;;
8333;SDS011;4204;43.004;23.052;2023-03-01T06:37:38;2.23;;;1.50;;
8333;SDS011;4204;43.004;23.052;2023-03-01T06:40:07;1.57;;;1.30;;
8333;SDS011;4204;43.004;23.052;2023-03-01T06:42:38;1.83;;;1.20;;
8333;SDS011;4204;43.004;23.052;2023-03-01T06:45:07;1.60;;;1.33;;
8333;SDS011;4204;43.004;23.052;2023-03-01T06:47:38;2.00;;;1.50;;
8333;SDS011;4204;43.004;23.052;2023-03-01T06:50:06;2.37;;;1.43;;
8333;SDS011;4204;43.004;23.052;2023-03-01T06:52:35;2.17;;;1.67;;
8333;SDS011;4204;43.004;23.052;2023-03-01T06:55:03;1.60;;;1.43;;
8333;SDS011;4204;43.004;23.052;2023-03-01T06:57:32;2.10;;;1.23;;
8333;SDS011;4204;43.004;23.052;2023-03-01T07:00:00;2.37;;;1.60;;
8333;SDS011;4204;43.004;23.052;2023-03-01T07:02:29;2.47;;;1.50;;
8333;SDS011;4204;43.004;23.052;2023-03-01T07:04:57;2.03;;;1.53;;
8333;SDS011;4204;43.004;23.052;2023-03-01T07:07:25;3.87;;;1.40;;
8333;SDS011;4204;43.004;23.052;2023-03-01T07:09:53;2.20;;;1.50;;
8333;SDS011;4204;43.004;23.052;2023-03-01T07:12:21;1.63;;;1.50;;
8333;SDS011;4204;43.004;23.052;2023-03-01T07:14:49;1.77;;;1.30;;
8333;SDS011;4204;43.004;23.052;2023-03-01T07:17:17;3.10;;;1.67;;
8333;SDS011;4204;43.004;23.052;2023-03-01T07:19:46;1.83;;;1.20;;
8333;SDS011;4204;43.004;23.052;2023-03-01T07:22:14;1.33;;;1.23;;
8333;SDS011;4204;43.004;23.052;2023-03-01T07:24:42;2.13;;;1.27;;
8333;SDS011;4204;43.004;23.052;2023-03-01T07:27:10;2.30;;;1.60;;
8333;SDS011;4204;43.004;23.052;2023-03-01T07:29:38;3.07;;;1.80;;
8333;SDS011;4204;43.004;23.052;2023-03-01T07:32:06;2.70;;;1.83;;
8333;SDS011;4204;43.004;23.052;2023-03-01T07:34:38;4.73;;;1.80;;
8333;SDS011;4204;43.004;23.052;2023-03-01T07:37:07;6.47;;;2.33;;
8333;SDS011;4204;43.004;23.052;2023-03-01T07:39:35;5.97;;;2.77;;
8333;SDS011;4204;43.004;23.052;2023-03-01T07:42:03;4.10;;;2.20;;
8333;SDS011;4204;43.004;23.052;2023-03-01T07:44:31;1.97;;;1.53;;
8333;SDS011;4204;43.004;23.052;2023-03-01T07:46:58;2.17;;;1.40;;
8333;SDS011;4204;43.004;23.052;2023-03-01T07:49:26;3.10;;;1.57;;
8333;SDS011;4204;43.004;23.052;2023-03-01T07:51:54;2.47;;;1.67;;
8333;SDS011;4204;43.004;23.052;2023-03-01T07:54:23;4.60;;;2.20;;
8333;SDS011;4204;43.004;23.052;2023-03-01T07:56:52;4.70;;;2.40;;
8333;SDS011;4204;43.004;23.052;2023-03-01T07:59:20;4.40;;;1.67;;
8333;SDS011;4204;43.004;23.052;2023-03-01T08:01:49;4.27;;;2.30;;
8333;SDS011;4204;43.004;23.052;2023-03-01T08:04:17;4.93;;;2.30;;
8333;SDS011;4204;43.004;23.052;2023-03-01T08:06:44;6.60;;;2.87;;
8333;SDS011;4204;43.004;23.052;2023-03-01T08:09:12;5.00;;;2.43;;
8333;SDS011;4204;43.004;23.052;2023-03-01T08:11:41;2.30;;;1.40;;
8333;SDS011;4204;43.004;23.052;2023-03-01T08:14:09;1.57;;;1.33;;
8333;SDS011;4204;43.004;23.052;2023-03-01T08:16:37;1.43;;;1.20;;
8333;SDS011;4204;43.004;23.052;2023-03-01T08:19:06;2.87;;;1.90;;
8333;SDS011;4204;43.004;23.052;2023-03-01T08:21:34;2.57;;;1.50;;
8333;SDS011;4204;43.004;23.052;2023-03-01T08:24:03;1.63;;;1.20;;
8333;SDS011;4204;43.004;23.052;2023-03-01T08:26:32;1.33;;;1.20;;
8333;SDS011;4204;43.004;23.052;2023-03-01T08:29:02;2.53;;;1.40;;
8333;SDS011;4204;43.004;23.052;2023-03-01T08:31:31;1.57;;;1.30;;
8333;SDS011;4204;43.004;23.052;2023-03-01T08:34:01;2.33;;;1.77;;
8333;SDS011;4204;43.004;23.052;2023-03-01T08:36:31;2.60;;;1.50;;
8333;SDS011;4204;43.004;23.052;2023-03-01T08:39:00;1.67;;;1.30;;
8333;SDS011;4204;43.004;23.052;2023-03-01T08:41:28;1.70;;;1.40;;
8333;SDS011;4204;43.004;23.052;2023-03-01T08:43:56;1.17;;;1.03;;
8333;SDS011;4204;43.004;23.052;2023-03-01T08:46:27;1.47;;;1.30;;
8333;SDS011;4204;43.004;23.052;2023-03-01T08:48:56;1.43;;;1.03;;
8333;SDS011;4204;43.004;23.052;2023-03-01T08:51:24;1.50;;;1.20;;
8333;SDS011;4204;43.004;23.052;2023-03-01T08:53:52;1.77;;;1.10;;
8333;SDS011;4204;43.004;23.052;2023-03-01T08:56:20;2.53;;;1.90;;
8333;SDS011;4204;43.004;23.052;2023-03-01T08:58:48;1.50;;;1.40;;
8333;SDS011;4204;43.004;23.052;2023-03-01T09:01:18;1.40;;;1.30;;
8333;SDS011;4204;43.004;23.052;2023-03-01T09:03:47;1.47;;;1.33;;
8333;SDS011;4204;43.004;23.052;2023-03-01T09:06:15;2.10;;;1.30;;
8333;SDS011;4204;43.004;23.052;2023-03-01T09:08:43;1.50;;;1.13;;
8333;SDS011;4204;43.004;23.052;2023-03-01T09:11:13;2.03;;;1.30;;
8333;SDS011;4204;43.004;23.052;2023-03-01T09:13:41;1.47;;;1.37;;
8333;SDS011;4204;43.004;23.052;2023-03-01T09:16:10;2.50;;;1.30;;
8333;SDS011;4204;43.004;23.052;2023-03-01T09:18:39;1.67;;;1.23;;
8333;SDS011;4204;43.004;23.052;2023-03-01T09:21:10;1.00;;;0.90;;
8333;SDS011;4204;43.004;23.052;2023-03-01T09:23:39;0.97;;;0.87;;
8333;SDS011;4204;43.004;23.052;2023-03-01T09:26:09;0.87;;;0.87;;
8333;SDS011;4204;43.004;23.052;2023-03-01T09:28:38;2.90;;;1.40;;
8333;SDS011;4204;43.004;23.052;2023-03-01T09:31:06;2.70;;;1.30;;
8333;SDS011;4204;43.004;23.052;2023-03-01T09:33:34;2.00;;;1.30;;
8333;SDS011;4204;43.004;23.052;2023-03-01T09:36:03;1.63;;;1.43;;
8333;SDS011;4204;43.004;23.052;2023-03-01T09:38:34;1.90;;;1.47;;
8333;SDS011;4204;43.004;23.052;2023-03-01T09:41:02;1.47;;;1.20;;
8333;SDS011;4204;43.004;23.052;2023-03-01T09:43:38;1.40;;;1.30;;
8333;SDS011;4204;43.004;23.052;2023-03-01T09:46:10;2.17;;;1.60;;
8333;SDS011;4204;43.004;23.052;2023-03-01T09:48:43;1.83;;;1.30;;
8333;SDS011;4204;43.004;23.052;2023-03-01T09:51:17;2.00;;;1.60;;
8333;SDS011;4204;43.004;23.052;2023-03-01T09:53:48;1.83;;;1.30;;
8333;SDS011;4204;43.004;23.052;2023-03-01T09:56:17;2.40;;;1.60;;
8333;SDS011;4204;43.004;23.052;2023-03-01T09:58:51;2.13;;;1.40;;
8333;SDS011;4204;43.004;23.052;2023-03-01T10:01:27;2.00;;;1.50;;
8333;SDS011;4204;43.004;23.052;2023-03-01T10:04:06;1.60;;;1.43;;
8333;SDS011;4204;43.004;23.052;2023-03-01T10:06:51;2.73;;;1.60;;
8333;SDS011;4204;43.004;23.052;2023-03-01T10:09:26;2.80;;;1.93;;
8333;SDS011;4204;43.004;23.052;2023-03-01T10:11:59;2.87;;;1.80;;
8333;SDS011;4204;43.004;23.052;2023-03-01T10:14:30;2.83;;;1.53;;
8333;SDS011;4204;43.004;23.052;2023-03-01T10:17:03;2.13;;;1.53;;
8333;SDS011;4204;43.004;23.052;2023-03-01T10:19:36;1.80;;;1.20;;
8333;SDS011;4204;43.004;23.052;2023-03-01T10:22:11;1.50;;;1.30;;
8333;SDS011;4204;43.004;23.052;2023-03-01T10:24:44;1.77;;;1.20;;
8333;SDS011;4204;43.004;23.052;2023-03-01T10:27:14;1.63;;;1.50;;
8333;SDS011;4204;43.004;23.052;2023-03-01T10:29:48;1.80;;;1.60;;
8333;SDS011;4204;43.004;23.052;2023-03-01T10:32:24;1.90;;;1.30;;
8333;SDS011;4204;43.004;23.052;2023-03-01T10:34:53;2.77;;;1.50;;
8333;SDS011;4204;43.004;23.052;2023-03-01T10:37:21;1.90;;;1.40;;
8333;SDS011;4204;43.004;23.052;2023-03-01T10:39:58;1.97;;;1.30;;
8333;SDS011;4204;43.004;23.052;2023-03-01T10:42:32;2.17;;;1.50;;
8333;SDS011;4204;43.004;23.052;2023-03-01T10:45:14;1.70;;;1.40;;
8333;SDS011;4204;43.004;23.052;2023-03-01T10:47:43;2.10;;;1.50;;
8333;SDS011;4204;43.004;23.052;2023-03-01T10:50:18;2.17;;;1.50;;
8333;SDS011;4204;43.004;23.052;2023-03-01T10:52:55;1.60;;;1.43;;
8333;SDS011;4204;43.004;23.052;2023-03-01T10:55:26;2.83;;;1.70;;
8333;SDS011;4204;43.004;23.052;2023-03-01T10:58:09;2.47;;;1.80;;
8333;SDS011;4204;43.004;23.052;2023-03-01T11:00:45;3.13;;;1.93;;
8333;SDS011;4204;43.004;23.052;2023-03-01T11:03:16;2.30;;;1.70;;
8333;SDS011;4204;43.004;23.052;2023-03-01T11:05:52;2.47;;;1.80;;
8333;SDS011;4204;43.004;23.052;2023-03-01T11:08:29;3.03;;;1.93;;
8333;SDS011;4204;43.004;23.052;2023-03-01T11:11:05;2.13;;;1.60;;
8333;SDS011;4204;43.004;23.052;2023-03-01T11:13:50;2.00;;;1.50;;
8333;SDS011;4204;43.004;23.052;2023-03-01T11:16:27;2.73;;;2.10;;
8333;SDS011;4204;43.004;23.052;2023-03-01T11:19:00;2.97;;;1.93;;
8333;SDS011;4204;43.004;23.052;2023-03-01T11:21:43;1.73;;;1.43;;
8333;SDS011;4204;43.004;23.052;2023-03-01T11:24:26;1.40;;;1.30;;
8333;SDS011;4204;43.004;23.052;2023-03-01T11:27:01;1.53;;;1.37;;
8333;SDS011;4204;43.004;23.052;2023-03-01T11:29:36;1.83;;;1.30;;
8333;SDS011;4204;43.004;23.052;2023-03-01T11:32:08;2.10;;;1.13;;
8333;SDS011;4204;43.004;23.052;2023-03-01T11:34:40;3.10;;;1.53;;
8333;SDS011;4204;43.004;23.052;2023-03-01T11:40:10;1.93;;;1.30;;
8333;SDS011;4204;43.004;23.052;2023-03-01T11:42:46;4.60;;;1.77;;
8333;SDS011;4204;43.004;23.052;2023-03-01T11:45:21;1.20;;;1.10;;
8333;SDS011;4204;43.004;23.052;2023-03-01T11:48:03;1.77;;;1.50;;
8333;SDS011;4204;43.004;23.052;2023-03-01T11:50:42;1.57;;;1.30;;
8333;SDS011;4204;43.004;23.052;2023-03-01T11:56:13;1.80;;;1.40;;
8333;SDS011;4204;43.004;23.052;2023-03-01T11:59:04;4.90;;;1.73;;
8333;SDS011;4204;43.004;23.052;2023-03-01T12:01:54;1.40;;;1.20;;
8333;SDS011;4204;43.004;23.052;2023-03-01T12:04:37;3.30;;;1.73;;
8333;SDS011;4204;43.004;23.052;2023-03-01T12:07:36;3.90;;;1.47;;
8333;SDS011;4204;43.004;23.052;2023-03-01T12:13:06;2.07;;;1.60;;
8333;SDS011;4204;43.004;23.052;2023-03-01T12:15:46;3.30;;;2.20;;
8333;SDS011;4204;43.004;23.052;2023-03-01T12:21:24;2.23;;;1.97;;
8333;SDS011;4204;43.004;23.052;2023-03-01T12:24:18;4.57;;;1.83;;
8333;SDS011;4204;43.004;23.052;2023-03-01T12:26:58;3.93;;;1.83;;
8333;SDS011;4204;43.004;23.052;2023-03-01T12:29:39;2.60;;;1.90;;
8333;SDS011;4204;43.004;23.052;2023-03-01T12:35:22;3.23;;;1.70;;
8333;SDS011;4204;43.004;23.052;2023-03-01T12:38:06;1.67;;;1.50;;
8333;SDS011;4204;43.004;23.052;2023-03-01T12:40:49;2.30;;;1.53;;
8333;SDS011;4204;43.004;23.052;2023-03-01T12:43:36;1.80;;;1.60;;
8333;SDS011;4204;43.004;23.052;2023-03-01T12:46:19;3.67;;;1.80;;
8333;SDS011;4204;43.004;23.052;2023-03-01T12:48:58;3.13;;;2.07;;
8333;SDS011;4204;43.004;23.052;2023-03-01T12:51:32;2.17;;;1.77;;
8333;SDS011;4204;43.004;23.052;2023-03-01T12:54:05;3.00;;;1.90;;
8333;SDS011;4204;43.004;23.052;2023-03-01T12:56:39;3.23;;;1.90;;
8333;SDS011;4204;43.004;23.052;2023-03-01T12:59:11;2.93;;;1.63;;
8333;SDS011;4204;43.004;23.052;2023-03-01T13:01:44;2.10;;;1.77;;
8333;SDS011;4204;43.004;23.052;2023-03-01T13:04:20;3.07;;;1.80;;
8333;SDS011;4204;43.004;23.052;2023-03-01T13:06:58;2.77;;;2.03;;
8333;SDS011;4204;43.004;23.052;2023-03-01T13:09:37;2.47;;;1.80;;
8333;SDS011;4204;43.004;23.052;2023-03-01T13:20:57;2.87;;;2.00;;
8333;SDS011;4204;43.004;23.052;2023-03-01T13:23:28;5.13;;;1.97;;
8333;SDS011;4204;43.004;23.052;2023-03-01T13:26:03;2.57;;;1.80;;
8333;SDS011;4204;43.004;23.052;2023-03-01T13:28:48;3.17;;;2.10;;
8333;SDS011;4204;43.004;23.052;2023-03-01T13:34:39;2.50;;;2.10;;
8333;SDS011;4204;43.004;23.052;2023-03-01T13:37:22;2.77;;;1.97;;
8333;SDS011;4204;43.004;23.052;2023-03-01T13:39:56;4.23;;;1.80;;
8333;SDS011;4204;43.004;23.052;2023-03-01T13:42:31;3.50;;;1.90;;
8333;SDS011;4204;43.004;23.052;2023-03-01T13:45:20;2.63;;;1.87;;
8333;SDS011;4204;43.004;23.052;2023-03-01T13:47:53;3.23;;;2.03;;
8333;SDS011;4204;43.004;23.052;2023-03-01T13:50:25;3.27;;;2.17;;
8333;SDS011;4204;43.004;23.052;2023-03-01T13:52:57;4.77;;;2.40;;
8333;SDS011;4204;43.004;23.052;2023-03-01T13:55:30;5.07;;;2.87;;
8333;SDS011;4204;43.004;23.052;2023-03-01T13:58:05;4.33;;;2.27;;
8333;SDS011;4204;43.004;23.052;2023-03-01T14:00:42;2.73;;;2.10;;
8333;SDS011;4204;43.004;23.052;2023-03-01T14:03:12;3.23;;;2.23;;
8333;SDS011;4204;43.004;23.052;2023-03-01T14:05:42;2.90;;;2.33;;
8333;SDS011;4204;43.004;23.052;2023-03-01T14:08:20;3.80;;;2.13;;
8333;SDS011;4204;43.004;23.052;2023-03-01T14:14:18;3.07;;;2.10;;
8333;SDS011;4204;43.004;23.052;2023-03-01T14:17:13;3.73;;;2.00;;
8333;SDS011;4204;43.004;23.052;2023-03-01T14:19:55;3.30;;;2.33;;
8333;SDS011;4204;43.004;23.052;2023-03-01T14:22:25;5.20;;;2.50;;
8333;SDS011;4204;43.004;23.052;2023-03-01T14:24:57;2.20;;;1.90;;
8333;SDS011;4204;43.004;23.052;2023-03-01T14:27:26;4.93;;;1.73;;
8333;SDS011;4204;43.004;23.052;2023-03-01T14:30:00;3.17;;;2.30;;
8333;SDS011;4204;43.004;23.052;2023-03-01T14:32:30;2.30;;;1.90;;
8333;SDS011;4204;43.004;23.052;2023-03-01T14:34:59;3.27;;;2.13;;
8333;SDS011;4204;43.004;23.052;2023-03-01T14:37:28;4.07;;;1.90;;
8333;SDS011;4204;43.004;23.052;2023-03-01T14:39:59;3.23;;;2.00;;
8333;SDS011;4204;43.004;23.052;2023-03-01T14:42:30;3.13;;;2.43;;
8333;SDS011;4204;43.004;23.052;2023-03-01T14:45:02;4.23;;;1.97;;
8333;SDS011;4204;43.004;23.052;2023-03-01T14:47:34;3.70;;;2.40;;
8333;SDS011;4204;43.004;23.052;2023-03-01T14:50:05;3.30;;;1.97;;
8333;SDS011;4204;43.004;23.052;2023-03-01T14:52:37;5.27;;;2.50;;
8333;SDS011;4204;43.004;23.052;2023-03-01T14:55:13;6.80;;;2.53;;
8333;SDS011;4204;43.004;23.052;2023-03-01T14:57:46;4.70;;;3.00;;
8333;SDS011;4204;43.004;23.052;2023-03-01T15:00:16;3.90;;;2.57;;
8333;SDS011;4204;43.004;23.052;2023-03-01T15:02:47;4.20;;;2.70;;
8333;SDS011;4204;43.004;23.052;2023-03-01T15:05:18;5.10;;;2.80;;
8333;SDS011;4204;43.004;23.052;2023-03-01T15:07:52;2.97;;;2.33;;
8333;SDS011;4204;43.004;23.052;2023-03-01T15:10:24;3.70;;;2.47;;
8333;SDS011;4204;43.004;23.052;2023-03-01T15:12:54;2.80;;;2.10;;
8333;SDS011;4204;43.004;23.052;2023-03-01T15:15:33;3.00;;;2.27;;
8333;SDS011;4204;43.004;23.052;2023-03-01T15:18:04;4.43;;;2.53;;
8333;SDS011;4204;43.004;23.052;2023-03-01T15:20:40;4.00;;;2.57;;
8333;SDS011;4204;43.004;23.052;2023-03-01T15:23:16;3.17;;;2.30;;
8333;SDS011;4204;43.004;23.052;2023-03-01T15:25:48;4.80;;;2.60;;
8333;SDS011;4204;43.004;23.052;2023-03-01T15:28:22;3.00;;;2.40;;
8333;SDS011;4204;43.004;23.052;2023-03-01T15:30:53;2.93;;;2.23;;
8333;SDS011;4204;43.004;23.052;2023-03-01T15:33:30;3.97;;;2.40;;
8333;SDS011;4204;43.004;23.052;2023-03-01T15:36:03;5.73;;;3.07;;
8333;SDS011;4204;43.004;23.052;2023-03-01T15:38:50;3.87;;;2.63;;
8333;SDS011;4204;43.004;23.052;2023-03-01T15:41:25;4.07;;;2.50;;
8333;SDS011;4204;43.004;23.052;2023-03-01T15:43:57;3.30;;;2.73;;
8333;SDS011;4204;43.004;23.052;2023-03-01T15:46:26;6.23;;;2.73;;
8333;SDS011;4204;43.004;23.052;2023-03-01T15:48:58;5.70;;;2.00;;
8333;SDS011;4204;43.004;23.052;2023-03-01T15:51:29;4.43;;;2.63;;
8333;SDS011;4204;43.004;23.052;2023-03-01T15:54:02;3.23;;;2.20;;
8333;SDS011;4204;43.004;23.052;2023-03-01T15:56:35;6.00;;;2.80;;
8333;SDS011;4204;43.004;23.052;2023-03-01T15:59:10;4.17;;;2.50;;